sensor_id;sensor_type;location;lat;lon;timestamp;P1;durP1;ratioP1;P2;durP2;ratioP2
57467;SDS011;43311;51.196;7.518;2024-01-15T00:00:46;38.55;;;12.68;;
57467;SDS011;43311;51.196;7.518;2024-01-15T00:03:11;38.13;;;13.35;;
57467;SDS011;43311;51.196;7.518;2024-01-15T00:05:37;34.97;;;13.25;;
57467;SDS011;43311;51.196;7.518;2024-01-15T00:08:03;35.60;;;13.38;;
57467;SDS011;43311;51.196;7.518;2024-01-15T00:10:29;30.55;;;12.60;;
57467;SDS011;43311;51.196;7.518;2024-01-15T00:12:55;33.10;;;12.68;;
57467;SDS011;43311;51.196;7.518;2024-01-15T01:28:23;30.40;;;11.63;;
57467;SDS011;43311;51.196;7.518;2024-01-15T01:30:48;30.40;;;10.52;;
57467;SDS011;43311;51.196;7.518;2024-01-15T01:33:14;26.42;;;10.57;;
57467;SDS011;43311;51.196;7.518;2024-01-15T01:35:39;28.25;;;11.52;;
57467;SDS011;43311;51.196;7.518;2024-01-15T01:38:04;34.50;;;12.27;;
57467;SDS011;43311;51.196;7.518;2024-01-15T01:40:30;26.05;;;10.90;;
57467;SDS011;43311;51.196;7.518;2024-01-15T01:42:55;25.48;;;10.95;;
57467;SDS011;43311;51.196;7.518;2024-01-15T01:45:21;26.83;;;10.60;;
57467;SDS011;43311;51.196;7.518;2024-01-15T01:47:46;33.25;;;11.95;;
57467;SDS011;43311;51.196;7.518;2024-01-15T01:50:12;30.95;;;11.82;;
57467;SDS011;43311;51.196;7.518;2024-01-15T01:52:38;28.60;;;12.05;;
57467;SDS011;43311;51.196;7.518;2024-01-15T01:55:04;30.70;;;12.25;;
57467;SDS011;43311;51.196;7.518;2024-01-15T01:57:31;31.35;;;12.85;;
57467;SDS011;43311;51.196;7.518;2024-01-15T01:59:59;31.05;;;12.00;;
57467;SDS011;43311;51.196;7.518;2024-01-15T02:02:25;28.88;;;12.68;;
57467;SDS011;43311;51.196;7.518;2024-01-15T02:04:50;32.70;;;13.10;;
57467;SDS011;43311;51.196;7.518;2024-01-15T02:07:16;33.70;;;11.55;;
57467;SDS011;43311;51.196;7.518;2024-01-15T02:09:43;30.40;;;11.43;;
57467;SDS011;43311;51.196;7.518;2024-01-15T02:12:09;29.42;;;12.40;;
57467;SDS011;43311;51.196;7.518;2024-01-15T02:14:35;32.45;;;11.75;;
57467;SDS011;43311;51.196;7.518;2024-01-15T02:17:00;33.33;;;13.25;;
57467;SDS011;43311;51.196;7.518;2024-01-15T02:19:26;33.47;;;12.27;;
57467;SDS011;43311;51.196;7.518;2024-01-15T02:21:51;32.15;;;12.27;;
57467;SDS011;43311;51.196;7.518;2024-01-15T02:24:16;30.83;;;13.18;;
57467;SDS011;43311;51.196;7.518;2024-01-15T02:26:42;29.27;;;11.18;;
57467;SDS011;43311;51.196;7.518;2024-01-15T02:29:08;34.58;;;11.68;;
57467;SDS011;43311;51.196;7.518;2024-01-15T02:31:36;34.05;;;11.88;;
57467;SDS011;43311;51.196;7.518;2024-01-15T02:34:01;34.03;;;12.35;;
57467;SDS011;43311;51.196;7.518;2024-01-15T02:36:27;32.97;;;11.60;;
57467;SDS011;43311;51.196;7.518;2024-01-15T02:38:52;33.05;;;11.35;;
57467;SDS011;43311;51.196;7.518;2024-01-15T02:41:18;38.63;;;12.32;;
57467;SDS011;43311;51.196;7.518;2024-01-15T02:43:43;34.50;;;11.20;;
57467;SDS011;43311;51.196;7.518;2024-01-15T02:46:09;82.32;;;12.52;;
57467;SDS011;43311;51.196;7.518;2024-01-15T02:48:34;40.92;;;12.57;;
57467;SDS011;43311;51.196;7.518;2024-01-15T02:51:00;38.03;;;11.10;;
57467;SDS011;43311;51.196;7.518;2024-01-15T02:53:26;35.33;;;12.05;;
57467;SDS011;43311;51.196;7.518;2024-01-15T02:55:51;33.97;;;11.95;;
57467;SDS011;43311;51.196;7.518;2024-01-15T02:58:17;39.08;;;12.05;;
57467;SDS011;43311;51.196;7.518;2024-01-15T03:00:42;41.47;;;12.82;;
57467;SDS011;43311;51.196;7.518;2024-01-15T03:03:08;45.47;;;13.38;;
57467;SDS011;43311;51.196;7.518;2024-01-15T03:05:34;60.17;;;12.80;;
57467;SDS011;43311;51.196;7.518;2024-01-15T03:07:59;36.83;;;12.05;;
57467;SDS011;43311;51.196;7.518;2024-01-15T03:10:24;98.03;;;14.65;;
57467;SDS011;43311;51.196;7.518;2024-01-15T03:12:50;57.25;;;13.10;;
57467;SDS011;43311;51.196;7.518;2024-01-15T03:15:15;49.05;;;13.25;;
57467;SDS011;43311;51.196;7.518;2024-01-15T03:17:41;55.08;;;12.95;;
57467;SDS011;43311;51.196;7.518;2024-01-15T03:20:08;44.88;;;12.52;;
57467;SDS011;43311;51.196;7.518;2024-01-15T03:22:33;31.02;;;11.18;;
57467;SDS011;43311;51.196;7.518;2024-01-15T03:24:59;39.40;;;10.82;;
57467;SDS011;43311;51.196;7.518;2024-01-15T03:27:24;34.67;;;12.52;;
57467;SDS011;43311;51.196;7.518;2024-01-15T03:29:51;35.67;;;12.20;;
57467;SDS011;43311;51.196;7.518;2024-01-15T03:32:16;36.80;;;12.18;;
57467;SDS011;43311;51.196;7.518;2024-01-15T03:34:42;31.30;;;12.05;;
57467;SDS011;43311;51.196;7.518;2024-01-15T03:37:07;43.72;;;12.57;;
57467;SDS011;43311;51.196;7.518;2024-01-15T03:39:33;32.60;;;12.75;;
57467;SDS011;43311;51.196;7.518;2024-01-15T03:41:58;29.95;;;10.95;;
57467;SDS011;43311;51.196;7.518;2024-01-15T03:44:23;30.00;;;11.18;;
57467;SDS011;43311;51.196;7.518;2024-01-15T03:46:49;29.40;;;10.35;;
57467;SDS011;43311;51.196;7.518;2024-01-15T03:49:14;29.17;;;10.63;;
57467;SDS011;43311;51.196;7.518;2024-01-15T03:51:40;25.88;;;9.90;;
57467;SDS011;43311;51.196;7.518;2024-01-15T03:54:06;28.60;;;10.27;;
57467;SDS011;43311;51.196;7.518;2024-01-15T03:56:31;27.73;;;10.88;;
57467;SDS011;43311;51.196;7.518;2024-01-15T03:58:57;32.60;;;11.15;;
57467;SDS011;43311;51.196;7.518;2024-01-15T04:01:22;36.42;;;12.30;;
57467;SDS011;43311;51.196;7.518;2024-01-15T04:03:47;26.00;;;11.82;;
57467;SDS011;43311;51.196;7.518;2024-01-15T04:06:13;33.42;;;12.13;;
57467;SDS011;43311;51.196;7.518;2024-01-15T04:08:38;30.88;;;11.52;;
57467;SDS011;43311;51.196;7.518;2024-01-15T04:11:04;33.05;;;13.10;;
57467;SDS011;43311;51.196;7.518;2024-01-15T04:13:32;31.83;;;11.30;;
57467;SDS011;43311;51.196;7.518;2024-01-15T04:15:57;28.08;;;10.57;;
57467;SDS011;43311;51.196;7.518;2024-01-15T04:18:23;39.65;;;12.55;;
57467;SDS011;43311;51.196;7.518;2024-01-15T04:20:48;28.77;;;11.25;;
57467;SDS011;43311;51.196;7.518;2024-01-15T04:23:14;31.27;;;11.00;;
57467;SDS011;43311;51.196;7.518;2024-01-15T04:25:39;26.20;;;10.40;;
57467;SDS011;43311;51.196;7.518;2024-01-15T04:28:07;36.10;;;13.15;;
57467;SDS011;43311;51.196;7.518;2024-01-15T04:30:33;26.52;;;10.82;;
57467;SDS011;43311;51.196;7.518;2024-01-15T04:32:59;27.98;;;11.73;;
57467;SDS011;43311;51.196;7.518;2024-01-15T04:35:24;32.38;;;11.70;;
57467;SDS011;43311;51.196;7.518;2024-01-15T04:37:50;24.10;;;11.20;;
57467;SDS011;43311;51.196;7.518;2024-01-15T04:40:15;30.92;;;10.23;;
57467;SDS011;43311;51.196;7.518;2024-01-15T04:42:40;28.67;;;10.95;;
57467;SDS011;43311;51.196;7.518;2024-01-15T04:45:06;31.85;;;10.85;;
57467;SDS011;43311;51.196;7.518;2024-01-15T04:47:31;28.30;;;10.45;;
57467;SDS011;43311;51.196;7.518;2024-01-15T04:49:57;31.25;;;11.48;;
57467;SDS011;43311;51.196;7.518;2024-01-15T04:52:22;25.77;;;10.27;;
57467;SDS011;43311;51.196;7.518;2024-01-15T04:54:48;27.45;;;10.75;;
57467;SDS011;43311;51.196;7.518;2024-01-15T04:57:15;29.30;;;10.95;;
57467;SDS011;43311;51.196;7.518;2024-01-15T04:59:40;28.92;;;10.88;;
57467;SDS011;43311;51.196;7.518;2024-01-15T05:02:05;26.73;;;10.20;;
57467;SDS011;43311;51.196;7.518;2024-01-15T05:04:31;28.83;;;11.57;;
57467;SDS011;43311;51.196;7.518;2024-01-15T05:06:58;29.75;;;9.88;;
57467;SDS011;43311;51.196;7.518;2024-01-15T05:09:23;23.38;;;10.25;;
57467;SDS011;43311;51.196;7.518;2024-01-15T05:11:48;23.30;;;9.55;;
57467;SDS011;43311;51.196;7.518;2024-01-15T05:14:14;23.92;;;10.20;;
57467;SDS011;43311;51.196;7.518;2024-01-15T05:16:39;28.98;;;10.95;;
57467;SDS011;43311;51.196;7.518;2024-01-15T05:19:06;29.60;;;11.02;;
57467;SDS011;43311;51.196;7.518;2024-01-15T05:21:32;27.70;;;11.38;;
57467;SDS011;43311;51.196;7.518;2024-01-15T05:23:57;29.55;;;12.00;;
57467;SDS011;43311;51.196;7.518;2024-01-15T05:26:23;25.15;;;9.90;;
57467;SDS011;43311;51.196;7.518;2024-01-15T05:28:48;32.20;;;11.05;;
57467;SDS011;43311;51.196;7.518;2024-01-15T05:31:13;31.05;;;10.80;;
57467;SDS011;43311;51.196;7.518;2024-01-15T05:33:39;30.55;;;11.45;;
57467;SDS011;43311;51.196;7.518;2024-01-15T05:36:05;26.65;;;10.93;;
57467;SDS011;43311;51.196;7.518;2024-01-15T05:38:31;35.38;;;12.05;;
57467;SDS011;43311;51.196;7.518;2024-01-15T05:40:56;26.45;;;10.48;;
57467;SDS011;43311;51.196;7.518;2024-01-15T05:43:21;27.40;;;12.23;;
57467;SDS011;43311;51.196;7.518;2024-01-15T05:45:47;31.83;;;11.93;;
57467;SDS011;43311;51.196;7.518;2024-01-15T05:48:12;35.53;;;11.07;;
57467;SDS011;43311;51.196;7.518;2024-01-15T05:50:38;40.03;;;11.77;;
57467;SDS011;43311;51.196;7.518;2024-01-15T05:53:03;34.85;;;10.80;;
57467;SDS011;43311;51.196;7.518;2024-01-15T05:55:29;47.95;;;11.10;;
57467;SDS011;43311;51.196;7.518;2024-01-15T05:57:54;36.20;;;11.10;;
57467;SDS011;43311;51.196;7.518;2024-01-15T06:00:19;35.72;;;11.60;;
57467;SDS011;43311;51.196;7.518;2024-01-15T06:02:45;46.92;;;10.88;;
57467;SDS011;43311;51.196;7.518;2024-01-15T06:05:10;33.90;;;9.90;;
57467;SDS011;43311;51.196;7.518;2024-01-15T06:07:36;55.55;;;12.05;;
57467;SDS011;43311;51.196;7.518;2024-01-15T06:10:02;66.97;;;11.93;;
57467;SDS011;43311;51.196;7.518;2024-01-15T06:12:28;33.30;;;10.23;;
57467;SDS011;43311;51.196;7.518;2024-01-15T06:14:53;89.43;;;12.48;;
57467;SDS011;43311;51.196;7.518;2024-01-15T06:17:19;32.55;;;10.50;;
57467;SDS011;43311;51.196;7.518;2024-01-15T14:48:08;7.88;;;4.38;;
57467;SDS011;43311;51.196;7.518;2024-01-15T14:50:34;7.93;;;3.85;;
57467;SDS011;43311;51.196;7.518;2024-01-15T14:53:00;7.28;;;4.22;;
57467;SDS011;43311;51.196;7.518;2024-01-15T14:55:26;8.35;;;3.85;;
57467;SDS011;43311;51.196;7.518;2024-01-15T14:57:52;5.95;;;3.60;;
57467;SDS011;43311;51.196;7.518;2024-01-15T15:00:18;7.22;;;4.10;;
57467;SDS011;43311;51.196;7.518;2024-01-15T15:02:43;8.23;;;3.22;;
57467;SDS011;43311;51.196;7.518;2024-01-15T15:05:09;6.53;;;3.90;;
57467;SDS011;43311;51.196;7.518;2024-01-15T15:07:36;5.90;;;3.53;;
57467;SDS011;43311;51.196;7.518;2024-01-15T15:10:05;11.98;;;4.57;;
57467;SDS011;43311;51.196;7.518;2024-01-15T15:12:31;8.05;;;3.95;;
57467;SDS011;43311;51.196;7.518;2024-01-15T15:14:57;6.70;;;3.60;;
57467;SDS011;43311;51.196;7.518;2024-01-15T15:17:22;14.30;;;4.63;;
57467;SDS011;43311;51.196;7.518;2024-01-15T15:19:48;5.20;;;3.25;;
57467;SDS011;43311;51.196;7.518;2024-01-15T15:22:14;7.38;;;4.18;;
57467;SDS011;43311;51.196;7.518;2024-01-15T15:24:40;9.32;;;4.60;;
57467;SDS011;43311;51.196;7.518;2024-01-15T15:27:05;10.90;;;4.53;;
57467;SDS011;43311;51.196;7.518;2024-01-15T15:29:32;13.05;;;7.82;;
57467;SDS011;43311;51.196;7.518;2024-01-15T15:32:00;23.40;;;14.77;;
57467;SDS011;43311;51.196;7.518;2024-01-15T15:34:26;12.88;;;7.57;;
57467;SDS011;43311;51.196;7.518;2024-01-15T15:36:51;12.15;;;6.55;;
57467;SDS011;43311;51.196;7.518;2024-01-15T15:39:17;21.75;;;12.15;;
57467;SDS011;43311;51.196;7.518;2024-01-15T15:41:43;51.50;;;32.40;;
57467;SDS011;43311;51.196;7.518;2024-01-15T15:44:09;16.88;;;10.40;;
57467;SDS011;43311;51.196;7.518;2024-01-15T15:46:39;30.02;;;18.08;;
57467;SDS011;43311;51.196;7.518;2024-01-15T15:49:05;12.80;;;6.70;;
57467;SDS011;43311;51.196;7.518;2024-01-15T15:51:32;16.33;;;9.40;;
57467;SDS011;43311;51.196;7.518;2024-01-15T15:53:58;10.30;;;4.53;;
57467;SDS011;43311;51.196;7.518;2024-01-15T15:56:24;9.40;;;4.20;;
57467;SDS011;43311;51.196;7.518;2024-01-15T15:58:51;34.05;;;17.83;;
57467;SDS011;43311;51.196;7.518;2024-01-15T16:01:17;27.25;;;11.45;;
57467;SDS011;43311;51.196;7.518;2024-01-15T16:03:42;35.72;;;17.23;;
57467;SDS011;43311;51.196;7.518;2024-01-15T16:06:08;15.23;;;5.70;;
57467;SDS011;43311;51.196;7.518;2024-01-15T16:08:36;15.48;;;6.70;;
57467;SDS011;43311;51.196;7.518;2024-01-15T16:11:02;13.18;;;6.20;;
57467;SDS011;43311;51.196;7.518;2024-01-15T16:13:27;10.10;;;4.00;;
57467;SDS011;43311;51.196;7.518;2024-01-15T16:15:53;8.98;;;4.47;;
57467;SDS011;43311;51.196;7.518;2024-01-15T16:18:19;8.68;;;3.95;;
57467;SDS011;43311;51.196;7.518;2024-01-15T16:20:44;9.27;;;4.18;;
57467;SDS011;43311;51.196;7.518;2024-01-15T16:23:10;11.98;;;4.22;;
57467;SDS011;43311;51.196;7.518;2024-01-15T16:25:36;8.00;;;4.32;;
57467;SDS011;43311;51.196;7.518;2024-01-15T16:28:05;9.02;;;4.07;;
57467;SDS011;43311;51.196;7.518;2024-01-15T16:30:31;13.05;;;6.30;;
57467;SDS011;43311;51.196;7.518;2024-01-15T16:32:57;11.40;;;4.80;;
57467;SDS011;43311;51.196;7.518;2024-01-15T16:35:23;10.10;;;4.40;;
57467;SDS011;43311;51.196;7.518;2024-01-15T16:37:49;9.50;;;5.00;;
57467;SDS011;43311;51.196;7.518;2024-01-15T16:40:14;15.68;;;5.22;;
57467;SDS011;43311;51.196;7.518;2024-01-15T16:42:43;11.30;;;4.10;;
57467;SDS011;43311;51.196;7.518;2024-01-15T16:45:10;7.88;;;4.22;;
57467;SDS011;43311;51.196;7.518;2024-01-15T16:47:36;9.30;;;4.45;;
57467;SDS011;43311;51.196;7.518;2024-01-15T16:50:03;8.63;;;4.10;;
57467;SDS011;43311;51.196;7.518;2024-01-15T16:52:29;11.88;;;4.68;;
57467;SDS011;43311;51.196;7.518;2024-01-15T16:54:55;9.55;;;4.85;;
57467;SDS011;43311;51.196;7.518;2024-01-15T16:57:21;9.07;;;4.80;;
57467;SDS011;43311;51.196;7.518;2024-01-15T16:59:47;10.05;;;5.75;;
57467;SDS011;43311;51.196;7.518;2024-01-15T17:02:14;13.77;;;8.07;;
57467;SDS011;43311;51.196;7.518;2024-01-15T17:04:39;9.52;;;5.05;;
57467;SDS011;43311;51.196;7.518;2024-01-15T17:07:05;14.90;;;7.18;;
57467;SDS011;43311;51.196;7.518;2024-01-15T17:09:31;26.02;;;15.18;;
57467;SDS011;43311;51.196;7.518;2024-01-15T17:11:56;15.52;;;7.50;;
57467;SDS011;43311;51.196;7.518;2024-01-15T17:14:22;11.13;;;4.38;;
57467;SDS011;43311;51.196;7.518;2024-01-15T17:16:48;14.48;;;4.70;;
57467;SDS011;43311;51.196;7.518;2024-01-15T17:19:13;11.07;;;4.43;;
57467;SDS011;43311;51.196;7.518;2024-01-15T17:21:39;7.25;;;4.60;;
57467;SDS011;43311;51.196;7.518;2024-01-15T17:24:05;17.88;;;10.57;;
57467;SDS011;43311;51.196;7.518;2024-01-15T17:26:31;12.15;;;4.75;;
57467;SDS011;43311;51.196;7.518;2024-01-15T17:28:56;12.50;;;5.35;;
57467;SDS011;43311;51.196;7.518;2024-01-15T17:31:22;10.60;;;4.90;;
57467;SDS011;43311;51.196;7.518;2024-01-15T17:33:48;13.30;;;6.15;;
57467;SDS011;43311;51.196;7.518;2024-01-15T17:36:14;11.52;;;4.32;;
57467;SDS011;43311;51.196;7.518;2024-01-15T17:38:40;7.85;;;4.22;;
57467;SDS011;43311;51.196;7.518;2024-01-15T17:41:05;13.48;;;5.70;;
57467;SDS011;43311;51.196;7.518;2024-01-15T17:43:31;10.57;;;4.97;;
57467;SDS011;43311;51.196;7.518;2024-01-15T17:45:57;11.18;;;6.38;;
57467;SDS011;43311;51.196;7.518;2024-01-15T17:48:26;13.30;;;5.32;;
57467;SDS011;43311;51.196;7.518;2024-01-15T17:50:52;15.70;;;8.73;;
57467;SDS011;43311;51.196;7.518;2024-01-15T17:53:17;14.15;;;5.70;;
57467;SDS011;43311;51.196;7.518;2024-01-15T17:55:43;15.30;;;8.02;;
57467;SDS011;43311;51.196;7.518;2024-01-15T17:58:09;13.30;;;5.97;;
57467;SDS011;43311;51.196;7.518;2024-01-15T18:00:34;14.18;;;7.03;;
57467;SDS011;43311;51.196;7.518;2024-01-15T18:03:00;15.38;;;6.30;;
57467;SDS011;43311;51.196;7.518;2024-01-15T18:05:29;13.13;;;5.82;;
57467;SDS011;43311;51.196;7.518;2024-01-15T18:07:54;16.08;;;7.65;;
57467;SDS011;43311;51.196;7.518;2024-01-15T18:10:20;17.15;;;6.43;;
57467;SDS011;43311;51.196;7.518;2024-01-15T18:12:46;19.80;;;6.63;;
57467;SDS011;43311;51.196;7.518;2024-01-15T18:15:11;22.02;;;9.48;;
57467;SDS011;43311;51.196;7.518;2024-01-15T18:17:37;14.20;;;7.03;;
57467;SDS011;43311;51.196;7.518;2024-01-15T18:20:03;20.10;;;7.70;;
57467;SDS011;43311;51.196;7.518;2024-01-15T18:22:29;13.98;;;7.00;;
57467;SDS011;43311;51.196;7.518;2024-01-15T18:24:55;12.40;;;6.55;;
